sensor_id;sensor_type;location;lat;lon;timestamp;temperature;humidity
38568;DHT22;24338;48.280;10.970;2023-03-19T00:00:42;6.10;99.90
38568;DHT22;24338;48.280;10.970;2023-03-19T00:03:09;6.10;99.90
38568;DHT22;24338;48.280;10.970;2023-03-19T00:05:36;6.10;99.90
38568;DHT22;24338;48.280;10.970;2023-03-19T00:08:03;6.10;99.90
38568;DHT22;24338;48.280;10.970;2023-03-19T00:10:30;6.10;99.90
38568;DHT22;24338;48.280;10.970;2023-03-19T00:12:56;6.20;99.90
38568;DHT22;24338;48.280;10.970;2023-03-19T00:15:23;6.20;99.90
38568;DHT22;24338;48.280;10.970;2023-03-19T00:17:50;6.20;99.90
38568;DHT22;24338;48.280;10.970;2023-03-19T00:20:17;6.20;99.90
38568;DHT22;24338;48.280;10.970;2023-03-19T00:22:45;6.20;99.90
38568;DHT22;24338;48.280;10.970;2023-03-19T00:25:12;6.20;99.90
38568;DHT22;24338;48.280;10.970;2023-03-19T00:27:39;6.20;99.90
38568;DHT22;24338;48.280;10.970;2023-03-19T00:30:06;6.30;99.90
38568;DHT22;24338;48.280;10.970;2023-03-19T00:32:34;6.30;99.90
38568;DHT22;24338;48.280;10.970;2023-03-19T00:35:03;6.30;99.90
38568;DHT22;24338;48.280;10.970;2023-03-19T00:37:32;6.30;99.90
38568;DHT22;24338;48.280;10.970;2023-03-19T00:39:59;6.30;99.90
38568;DHT22;24338;48.280;10.970;2023-03-19T00:42:25;6.30;99.90
38568;DHT22;24338;48.280;10.970;2023-03-19T00:44:52;6.30;99.90
38568;DHT22;24338;48.280;10.970;2023-03-19T00:47:19;6.40;99.90
38568;DHT22;24338;48.280;10.970;2023-03-19T00:49:46;6.40;99.90
38568;DHT22;24338;48.280;10.970;2023-03-19T00:52:14;6.30;99.90
38568;DHT22;24338;48.280;10.970;2023-03-19T00:54:43;6.40;99.90
38568;DHT22;24338;48.280;10.970;2023-03-19T00:57:10;6.30;99.90
38568;DHT22;24338;48.280;10.970;2023-03-19T00:59:37;6.30;99.90
38568;DHT22;24338;48.280;10.970;2023-03-19T01:02:04;6.30;99.90
38568;DHT22;24338;48.280;10.970;2023-03-19T01:04:31;6.30;99.90
38568;DHT22;24338;48.280;10.970;2023-03-19T01:06:58;6.30;99.90
38568;DHT22;24338;48.280;10.970;2023-03-19T01:09:24;6.20;99.90
38568;DHT22;24338;48.280;10.970;2023-03-19T01:11:52;6.20;99.90
38568;DHT22;24338;48.280;10.970;2023-03-19T01:14:19;6.20;99.90
38568;DHT22;24338;48.280;10.970;2023-03-19T01:16:46;6.20;99.90
38568;DHT22;24338;48.280;10.970;2023-03-19T01:19:12;6.20;99.90
38568;DHT22;24338;48.280;10.970;2023-03-19T01:21:39;6.20;99.90
38568;DHT22;24338;48.280;10.970;2023-03-19T01:24:08;6.20;99.90
38568;DHT22;24338;48.280;10.970;2023-03-19T01:26:36;6.20;99.90
38568;DHT22;24338;48.280;10.970;2023-03-19T01:29:03;6.20;99.90
38568;DHT22;24338;48.280;10.970;2023-03-19T01:31:29;6.20;99.90
38568;DHT22;24338;48.280;10.970;2023-03-19T01:33:56;6.20;99.90
38568;DHT22;24338;48.280;10.970;2023-03-19T01:36:23;6.20;99.90
38568;DHT22;24338;48.280;10.970;2023-03-19T01:38:50;6.20;99.90
38568;DHT22;24338;48.280;10.970;2023-03-19T01:41:17;6.20;99.90
38568;DHT22;24338;48.280;10.970;2023-03-19T01:43:44;6.20;99.90
38568;DHT22;24338;48.280;10.970;2023-03-19T01:46:29;6.10;99.90
38568;DHT22;24338;48.280;10.970;2023-03-19T01:49:02;6.20;99.90
38568;DHT22;24338;48.280;10.970;2023-03-19T01:51:36;6.20;99.90
38568;DHT22;24338;48.280;10.970;2023-03-19T01:54:08;6.20;99.90
38568;DHT22;24338;48.280;10.970;2023-03-19T01:56:39;6.20;99.90
38568;DHT22;24338;48.280;10.970;2023-03-19T01:59:27;6.20;99.90
38568;DHT22;24338;48.280;10.970;2023-03-19T02:04:42;6.20;99.90
38568;DHT22;24338;48.280;10.970;2023-03-19T02:07:10;6.20;99.90
38568;DHT22;24338;48.280;10.970;2023-03-19T02:09:38;6.10;99.90
38568;DHT22;24338;48.280;10.970;2023-03-19T02:12:07;6.10;99.90
38568;DHT22;24338;48.280;10.970;2023-03-19T02:14:34;6.10;99.90
38568;DHT22;24338;48.280;10.970;2023-03-19T02:17:03;6.00;99.90
38568;DHT22;24338;48.280;10.970;2023-03-19T02:22:03;6.00;99.90
38568;DHT22;24338;48.280;10.970;2023-03-19T02:24:36;6.00;99.90
38568;DHT22;24338;48.280;10.970;2023-03-19T02:27:06;6.00;99.90
38568;DHT22;24338;48.280;10.970;2023-03-19T02:29:34;6.10;99.90
38568;DHT22;24338;48.280;10.970;2023-03-19T02:32:01;6.00;99.90
38568;DHT22;24338;48.280;10.970;2023-03-19T02:37:08;6.10;99.90
38568;DHT22;24338;48.280;10.970;2023-03-19T02:42:16;6.00;99.90
38568;DHT22;24338;48.280;10.970;2023-03-19T02:44:44;6.00;99.90
38568;DHT22;24338;48.280;10.970;2023-03-19T02:47:11;6.00;99.90
38568;DHT22;24338;48.280;10.970;2023-03-19T02:49:38;6.00;99.90
38568;DHT22;24338;48.280;10.970;2023-03-19T02:52:05;6.00;99.90
38568;DHT22;24338;48.280;10.970;2023-03-19T02:54:32;5.90;99.90
38568;DHT22;24338;48.280;10.970;2023-03-19T02:56:59;5.90;99.90
38568;DHT22;24338;48.280;10.970;2023-03-19T02:59:26;6.00;99.90
38568;DHT22;24338;48.280;10.970;2023-03-19T03:01:53;6.00;99.90
38568;DHT22;24338;48.280;10.970;2023-03-19T03:04:20;6.00;99.90
38568;DHT22;24338;48.280;10.970;2023-03-19T03:06:47;5.90;99.90
38568;DHT22;24338;48.280;10.970;2023-03-19T03:09:14;5.90;99.90
38568;DHT22;24338;48.280;10.970;2023-03-19T03:11:40;6.00;99.90
38568;DHT22;24338;48.280;10.970;2023-03-19T03:14:07;6.00;99.90
38568;DHT22;24338;48.280;10.970;2023-03-19T03:16:34;6.10;99.90
38568;DHT22;24338;48.280;10.970;2023-03-19T03:19:01;6.10;99.90
38568;DHT22;24338;48.280;10.970;2023-03-19T03:21:28;6.10;99.90
38568;DHT22;24338;48.280;10.970;2023-03-19T03:23:55;6.10;99.90
38568;DHT22;24338;48.280;10.970;2023-03-19T03:26:22;6.10;99.90
38568;DHT22;24338;48.280;10.970;2023-03-19T03:28:48;6.20;99.90
38568;DHT22;24338;48.280;10.970;2023-03-19T03:31:15;6.20;99.90
38568;DHT22;24338;48.280;10.970;2023-03-19T03:33:42;6.20;99.90
38568;DHT22;24338;48.280;10.970;2023-03-19T03:36:09;6.20;99.90
38568;DHT22;24338;48.280;10.970;2023-03-19T03:38:36;6.20;99.90
38568;DHT22;24338;48.280;10.970;2023-03-19T03:41:03;6.20;99.90
38568;DHT22;24338;48.280;10.970;2023-03-19T03:43:30;6.10;99.90
38568;DHT22;24338;48.280;10.970;2023-03-19T03:45:57;6.10;99.90
38568;DHT22;24338;48.280;10.970;2023-03-19T03:48:24;6.20;99.90
38568;DHT22;24338;48.280;10.970;2023-03-19T03:50:51;6.10;99.90
38568;DHT22;24338;48.280;10.970;2023-03-19T03:53:18;6.10;99.90
38568;DHT22;24338;48.280;10.970;2023-03-19T03:55:45;6.10;99.90
38568;DHT22;24338;48.280;10.970;2023-03-19T03:58:12;6.20;99.90
38568;DHT22;24338;48.280;10.970;2023-03-19T04:00:38;6.10;99.90
38568;DHT22;24338;48.280;10.970;2023-03-19T04:03:05;6.10;99.90
38568;DHT22;24338;48.280;10.970;2023-03-19T04:05:32;6.10;99.90
38568;DHT22;24338;48.280;10.970;2023-03-19T04:07:59;6.10;99.90
38568;DHT22;24338;48.280;10.970;2023-03-19T04:10:26;6.00;99.90
38568;DHT22;24338;48.280;10.970;2023-03-19T04:12:53;6.10;99.90
38568;DHT22;24338;48.280;10.970;2023-03-19T04:15:20;6.10;99.90
38568;DHT22;24338;48.280;10.970;2023-03-19T04:17:47;6.10;99.90
38568;DHT22;24338;48.280;10.970;2023-03-19T04:20:14;6.10;99.90
38568;DHT22;24338;48.280;10.970;2023-03-19T04:22:44;6.10;99.90
38568;DHT22;24338;48.280;10.970;2023-03-19T04:25:10;6.10;99.90
38568;DHT22;24338;48.280;10.970;2023-03-19T04:27:37;6.10;99.90
38568;DHT22;24338;48.280;10.970;2023-03-19T04:30:04;6.10;99.90
38568;DHT22;24338;48.280;10.970;2023-03-19T04:32:31;6.10;99.90
38568;DHT22;24338;48.280;10.970;2023-03-19T04:34:59;6.10;99.90
38568;DHT22;24338;48.280;10.970;2023-03-19T04:37:26;6.10;99.90
38568;DHT22;24338;48.280;10.970;2023-03-19T04:39:53;6.20;99.90
38568;DHT22;24338;48.280;10.970;2023-03-19T04:42:20;6.20;99.90
38568;DHT22;24338;48.280;10.970;2023-03-19T04:44:47;6.30;99.90
38568;DHT22;24338;48.280;10.970;2023-03-19T04:47:14;6.40;99.90
38568;DHT22;24338;48.280;10.970;2023-03-19T04:49:41;6.40;99.90
38568;DHT22;24338;48.280;10.970;2023-03-19T04:52:08;6.50;99.90
38568;DHT22;24338;48.280;10.970;2023-03-19T04:54:35;6.70;99.90
38568;DHT22;24338;48.280;10.970;2023-03-19T04:57:01;6.80;99.90
38568;DHT22;24338;48.280;10.970;2023-03-19T04:59:28;7.00;99.90
38568;DHT22;24338;48.280;10.970;2023-03-19T05:01:55;7.20;99.90
38568;DHT22;24338;48.280;10.970;2023-03-19T05:04:22;7.40;99.90
38568;DHT22;24338;48.280;10.970;2023-03-19T05:06:49;7.50;99.90
38568;DHT22;24338;48.280;10.970;2023-03-19T05:09:16;7.70;99.90
38568;DHT22;24338;48.280;10.970;2023-03-19T05:11:43;8.00;99.90
38568;DHT22;24338;48.280;10.970;2023-03-19T05:14:10;8.10;99.90
38568;DHT22;24338;48.280;10.970;2023-03-19T05:16:37;8.10;99.90
38568;DHT22;24338;48.280;10.970;2023-03-19T05:19:04;8.00;99.90
38568;DHT22;24338;48.280;10.970;2023-03-19T05:21:31;7.90;99.90
38568;DHT22;24338;48.280;10.970;2023-03-19T05:23:58;8.00;99.90
38568;DHT22;24338;48.280;10.970;2023-03-19T05:26:25;8.00;99.90
38568;DHT22;24338;48.280;10.970;2023-03-19T05:28:52;8.10;99.90
38568;DHT22;24338;48.280;10.970;2023-03-19T05:31:18;8.20;99.90
38568;DHT22;24338;48.280;10.970;2023-03-19T05:33:45;8.20;99.90
38568;DHT22;24338;48.280;10.970;2023-03-19T05:36:12;8.20;99.90
38568;DHT22;24338;48.280;10.970;2023-03-19T05:38:39;8.30;99.90
38568;DHT22;24338;48.280;10.970;2023-03-19T05:41:06;8.40;99.90
38568;DHT22;24338;48.280;10.970;2023-03-19T05:43:33;8.40;99.90
38568;DHT22;24338;48.280;10.970;2023-03-19T05:46:00;8.40;99.90
38568;DHT22;24338;48.280;10.970;2023-03-19T05:48:27;8.40;99.90
38568;DHT22;24338;48.280;10.970;2023-03-19T05:50:54;8.30;99.90
38568;DHT22;24338;48.280;10.970;2023-03-19T05:53:21;8.40;99.90
38568;DHT22;24338;48.280;10.970;2023-03-19T05:55:48;8.40;99.90
38568;DHT22;24338;48.280;10.970;2023-03-19T05:58:15;8.40;99.90
38568;DHT22;24338;48.280;10.970;2023-03-19T06:00:42;8.40;99.90
38568;DHT22;24338;48.280;10.970;2023-03-19T06:03:09;8.40;99.90
38568;DHT22;24338;48.280;10.970;2023-03-19T06:05:37;8.40;99.90
38568;DHT22;24338;48.280;10.970;2023-03-19T06:08:04;8.30;99.90
38568;DHT22;24338;48.280;10.970;2023-03-19T06:10:34;8.40;99.90
38568;DHT22;24338;48.280;10.970;2023-03-19T06:13:01;8.30;99.90
38568;DHT22;24338;48.280;10.970;2023-03-19T06:15:28;8.30;99.90
38568;DHT22;24338;48.280;10.970;2023-03-19T06:17:55;8.30;99.90
38568;DHT22;24338;48.280;10.970;2023-03-19T06:20:22;8.30;99.90
38568;DHT22;24338;48.280;10.970;2023-03-19T06:22:48;8.40;99.90
38568;DHT22;24338;48.280;10.970;2023-03-19T06:25:15;8.40;99.90
38568;DHT22;24338;48.280;10.970;2023-03-19T06:27:45;8.40;99.90
38568;DHT22;24338;48.280;10.970;2023-03-19T06:30:12;8.40;99.90
38568;DHT22;24338;48.280;10.970;2023-03-19T06:32:39;8.40;99.90
38568;DHT22;24338;48.280;10.970;2023-03-19T06:35:07;8.40;99.90
38568;DHT22;24338;48.280;10.970;2023-03-19T06:37:34;8.40;99.90
38568;DHT22;24338;48.280;10.970;2023-03-19T06:40:02;8.40;99.90
38568;DHT22;24338;48.280;10.970;2023-03-19T06:42:30;8.40;99.90
38568;DHT22;24338;48.280;10.970;2023-03-19T06:44:57;8.40;99.90
38568;DHT22;24338;48.280;10.970;2023-03-19T06:47:24;8.40;99.90
38568;DHT22;24338;48.280;10.970;2023-03-19T06:49:51;8.30;99.90
38568;DHT22;24338;48.280;10.970;2023-03-19T06:52:18;8.40;99.90
38568;DHT22;24338;48.280;10.970;2023-03-19T06:54:45;8.40;99.90
38568;DHT22;24338;48.280;10.970;2023-03-19T06:57:12;8.40;99.90
38568;DHT22;24338;48.280;10.970;2023-03-19T06:59:38;8.40;99.90
38568;DHT22;24338;48.280;10.970;2023-03-19T07:02:05;8.40;99.90
38568;DHT22;24338;48.280;10.970;2023-03-19T07:04:35;8.50;99.90
38568;DHT22;24338;48.280;10.970;2023-03-19T07:07:02;8.50;99.90
38568;DHT22;24338;48.280;10.970;2023-03-19T07:09:31;8.50;99.90
38568;DHT22;24338;48.280;10.970;2023-03-19T07:11:58;8.50;99.90
38568;DHT22;24338;48.280;10.970;2023-03-19T07:14:25;8.50;99.90
38568;DHT22;24338;48.280;10.970;2023-03-19T07:16:51;8.50;99.90
38568;DHT22;24338;48.280;10.970;2023-03-19T07:19:18;8.40;99.90
38568;DHT22;24338;48.280;10.970;2023-03-19T07:21:46;8.40;99.90
38568;DHT22;24338;48.280;10.970;2023-03-19T07:24:13;8.40;99.90
38568;DHT22;24338;48.280;10.970;2023-03-19T07:26:40;8.40;99.90
38568;DHT22;24338;48.280;10.970;2023-03-19T07:29:07;8.40;99.90
38568;DHT22;24338;48.280;10.970;2023-03-19T07:31:34;8.50;99.90
38568;DHT22;24338;48.280;10.970;2023-03-19T07:34:02;8.50;99.90
38568;DHT22;24338;48.280;10.970;2023-03-19T07:36:29;8.50;99.90
38568;DHT22;24338;48.280;10.970;2023-03-19T07:38:56;8.50;99.90
38568;DHT22;24338;48.280;10.970;2023-03-19T07:41:23;8.40;99.90
38568;DHT22;24338;48.280;10.970;2023-03-19T07:43:50;8.40;99.90
38568;DHT22;24338;48.280;10.970;2023-03-19T07:46:17;8.40;99.90
38568;DHT22;24338;48.280;10.970;2023-03-19T07:48:44;8.40;99.90
38568;DHT22;24338;48.280;10.970;2023-03-19T07:51:11;8.40;99.90
38568;DHT22;24338;48.280;10.970;2023-03-19T07:53:38;8.40;99.90
38568;DHT22;24338;48.280;10.970;2023-03-19T07:56:05;8.50;99.90
38568;DHT22;24338;48.280;10.970;2023-03-19T07:58:32;8.50;99.90
38568;DHT22;24338;48.280;10.970;2023-03-19T08:00:59;8.60;99.90
38568;DHT22;24338;48.280;10.970;2023-03-19T08:03:26;8.70;99.90
38568;DHT22;24338;48.280;10.970;2023-03-19T08:05:52;8.80;99.90
38568;DHT22;24338;48.280;10.970;2023-03-19T08:08:22;8.90;99.90
38568;DHT22;24338;48.280;10.970;2023-03-19T08:10:49;9.00;99.90
38568;DHT22;24338;48.280;10.970;2023-03-19T08:13:18;9.10;99.90
38568;DHT22;24338;48.280;10.970;2023-03-19T08:15:45;9.20;99.90
38568;DHT22;24338;48.280;10.970;2023-03-19T08:18:12;9.30;99.90
38568;DHT22;24338;48.280;10.970;2023-03-19T08:20:39;9.40;99.90
38568;DHT22;24338;48.280;10.970;2023-03-19T08:23:05;9.50;99.90
38568;DHT22;24338;48.280;10.970;2023-03-19T08:25:32;9.60;99.90
38568;DHT22;24338;48.280;10.970;2023-03-19T08:28:00;9.70;99.90
38568;DHT22;24338;48.280;10.970;2023-03-19T08:30:27;9.80;99.90
38568;DHT22;24338;48.280;10.970;2023-03-19T08:32:54;9.80;99.90
38568;DHT22;24338;48.280;10.970;2023-03-19T08:35:21;9.90;99.90
38568;DHT22;24338;48.280;10.970;2023-03-19T08:37:48;9.90;99.90
38568;DHT22;24338;48.280;10.970;2023-03-19T08:40:15;9.80;99.90
38568;DHT22;24338;48.280;10.970;2023-03-19T08:42:42;9.80;99.90
38568;DHT22;24338;48.280;10.970;2023-03-19T08:45:12;9.80;99.90
38568;DHT22;24338;48.280;10.970;2023-03-19T08:47:39;9.80;99.90
38568;DHT22;24338;48.280;10.970;2023-03-19T08:50:07;9.80;99.90
38568;DHT22;24338;48.280;10.970;2023-03-19T08:52:33;9.70;99.90
38568;DHT22;24338;48.280;10.970;2023-03-19T08:55:00;9.70;99.90
38568;DHT22;24338;48.280;10.970;2023-03-19T08:57:29;9.70;99.90
38568;DHT22;24338;48.280;10.970;2023-03-19T08:59:57;9.70;99.90
38568;DHT22;24338;48.280;10.970;2023-03-19T09:02:23;9.70;99.90
38568;DHT22;24338;48.280;10.970;2023-03-19T09:04:51;9.70;99.90
38568;DHT22;24338;48.280;10.970;2023-03-19T09:07:18;9.80;99.90
38568;DHT22;24338;48.280;10.970;2023-03-19T09:09:44;9.90;99.90
38568;DHT22;24338;48.280;10.970;2023-03-19T09:12:14;10.00;99.90
38568;DHT22;24338;48.280;10.970;2023-03-19T09:14:41;10.10;99.90
38568;DHT22;24338;48.280;10.970;2023-03-19T09:17:09;10.20;99.90
38568;DHT22;24338;48.280;10.970;2023-03-19T09:19:36;10.30;99.90
38568;DHT22;24338;48.280;10.970;2023-03-19T09:22:05;10.40;99.90
38568;DHT22;24338;48.280;10.970;2023-03-19T09:24:31;10.60;99.90
38568;DHT22;24338;48.280;10.970;2023-03-19T09:26:58;10.70;99.90
38568;DHT22;24338;48.280;10.970;2023-03-19T09:29:25;10.80;99.90
38568;DHT22;24338;48.280;10.970;2023-03-19T09:31:52;11.00;99.90
38568;DHT22;24338;48.280;10.970;2023-03-19T09:34:19;11.10;99.90
38568;DHT22;24338;48.280;10.970;2023-03-19T09:36:46;11.20;99.90
38568;DHT22;24338;48.280;10.970;2023-03-19T09:39:12;11.40;99.90
38568;DHT22;24338;48.280;10.970;2023-03-19T09:44:32;11.80;99.90
38568;DHT22;24338;48.280;10.970;2023-03-19T09:49:49;12.10;99.90
38568;DHT22;24338;48.280;10.970;2023-03-19T09:52:36;12.30;99.90
38568;DHT22;24338;48.280;10.970;2023-03-19T09:57:37;12.20;99.90
38568;DHT22;24338;48.280;10.970;2023-03-19T10:00:22;12.30;99.90
38568;DHT22;24338;48.280;10.970;2023-03-19T10:08:36;12.50;99.90
38568;DHT22;24338;48.280;10.970;2023-03-19T10:16:40;12.40;99.90
38568;DHT22;24338;48.280;10.970;2023-03-19T10:19:09;12.30;99.90
38568;DHT22;24338;48.280;10.970;2023-03-19T10:21:44;12.30;99.90
38568;DHT22;24338;48.280;10.970;2023-03-19T10:27:04;12.50;99.90
38568;DHT22;24338;48.280;10.970;2023-03-19T10:29:34;12.60;99.90
38568;DHT22;24338;48.280;10.970;2023-03-19T10:34:42;12.80;99.90
38568;DHT22;24338;48.280;10.970;2023-03-19T10:37:16;12.90;99.90
38568;DHT22;24338;48.280;10.970;2023-03-19T10:39:44;13.00;99.90
38568;DHT22;24338;48.280;10.970;2023-03-19T10:44:53;13.10;99.90
38568;DHT22;24338;48.280;10.970;2023-03-19T10:47:24;13.10;99.90
38568;DHT22;24338;48.280;10.970;2023-03-19T10:49:52;13.30;99.90
38568;DHT22;24338;48.280;10.970;2023-03-19T10:52:26;13.30;99.90
38568;DHT22;24338;48.280;10.970;2023-03-19T10:55:00;13.40;99.90
38568;DHT22;24338;48.280;10.970;2023-03-19T10:57:28;13.40;99.90
38568;DHT22;24338;48.280;10.970;2023-03-19T11:00:04;13.20;99.90
38568;DHT22;24338;48.280;10.970;2023-03-19T11:02:31;13.30;99.90
38568;DHT22;24338;48.280;10.970;2023-03-19T11:05:28;13.40;99.90
38568;DHT22;24338;48.280;10.970;2023-03-19T11:08:05;13.30;99.90
38568;DHT22;24338;48.280;10.970;2023-03-19T11:10:34;13.20;99.90
38568;DHT22;24338;48.280;10.970;2023-03-19T11:13:15;13.30;99.90
38568;DHT22;24338;48.280;10.970;2023-03-19T11:18:22;13.60;99.90
38568;DHT22;24338;48.280;10.970;2023-03-19T11:21:04;13.60;99.90
38568;DHT22;24338;48.280;10.970;2023-03-19T11:23:36;13.70;99.90
38568;DHT22;24338;48.280;10.970;2023-03-19T11:26:04;13.80;99.90
38568;DHT22;24338;48.280;10.970;2023-03-19T11:28:31;13.90;99.90
38568;DHT22;24338;48.280;10.970;2023-03-19T11:31:11;14.00;99.90
38568;DHT22;24338;48.280;10.970;2023-03-19T11:39:29;13.90;99.90
38568;DHT22;24338;48.280;10.970;2023-03-19T11:42:28;14.10;99.90
38568;DHT22;24338;48.280;10.970;2023-03-19T11:45:17;14.10;99.90
38568;DHT22;24338;48.280;10.970;2023-03-19T11:50:56;14.20;99.90
38568;DHT22;24338;48.280;10.970;2023-03-19T11:53:30;14.20;99.90
38568;DHT22;24338;48.280;10.970;2023-03-19T11:56:30;14.20;99.90
38568;DHT22;24338;48.280;10.970;2023-03-19T12:07:18;14.60;99.90
38568;DHT22;24338;48.280;10.970;2023-03-19T12:12:33;14.80;99.90
38568;DHT22;24338;48.280;10.970;2023-03-19T12:15:15;15.10;99.90
38568;DHT22;24338;48.280;10.970;2023-03-19T12:26:31;15.20;99.90
38568;DHT22;24338;48.280;10.970;2023-03-19T12:32:02;15.00;99.90
38568;DHT22;24338;48.280;10.970;2023-03-19T12:34:44;15.00;99.90
38568;DHT22;24338;48.280;10.970;2023-03-19T12:42:43;15.40;99.90
38568;DHT22;24338;48.280;10.970;2023-03-19T12:45:33;15.70;99.90
38568;DHT22;24338;48.280;10.970;2023-03-19T12:48:15;16.00;99.90
38568;DHT22;24338;48.280;10.970;2023-03-19T12:50:48;16.10;99.90
38568;DHT22;24338;48.280;10.970;2023-03-19T12:56:14;16.10;97.80
38568;DHT22;24338;48.280;10.970;2023-03-19T13:01:48;15.80;99.40
38568;DHT22;24338;48.280;10.970;2023-03-19T13:04:23;15.60;99.90
38568;DHT22;24338;48.280;10.970;2023-03-19T13:07:10;15.70;99.90
38568;DHT22;24338;48.280;10.970;2023-03-19T13:10:04;16.00;99.90
38568;DHT22;24338;48.280;10.970;2023-03-19T13:12:36;16.30;99.90
38568;DHT22;24338;48.280;10.970;2023-03-19T13:15:15;16.10;98.60
38568;DHT22;24338;48.280;10.970;2023-03-19T13:18:02;15.80;99.90
38568;DHT22;24338;48.280;10.970;2023-03-19T13:20:59;15.60;99.90
38568;DHT22;24338;48.280;10.970;2023-03-19T13:23:32;15.40;99.10
38568;DHT22;24338;48.280;10.970;2023-03-19T13:26:02;15.30;98.00
38568;DHT22;24338;48.280;10.970;2023-03-19T13:28:34;15.50;99.00
38568;DHT22;24338;48.280;10.970;2023-03-19T13:31:17;15.70;99.90
38568;DHT22;24338;48.280;10.970;2023-03-19T13:36:38;16.00;99.20
38568;DHT22;24338;48.280;10.970;2023-03-19T13:39:16;16.50;97.60
38568;DHT22;24338;48.280;10.970;2023-03-19T13:41:50;16.60;96.60
38568;DHT22;24338;48.280;10.970;2023-03-19T13:46:48;16.80;97.30
38568;DHT22;24338;48.280;10.970;2023-03-19T13:51:48;16.60;97.10
38568;DHT22;24338;48.280;10.970;2023-03-19T13:54:17;16.80;97.20
38568;DHT22;24338;48.280;10.970;2023-03-19T13:57:04;16.50;93.00
38568;DHT22;24338;48.280;10.970;2023-03-19T13:59:33;16.50;94.70
38568;DHT22;24338;48.280;10.970;2023-03-19T14:02:02;16.30;94.60
38568;DHT22;24338;48.280;10.970;2023-03-19T14:04:55;16.10;94.70
38568;DHT22;24338;48.280;10.970;2023-03-19T14:07:25;16.00;96.70
38568;DHT22;24338;48.280;10.970;2023-03-19T14:12:32;15.80;95.90
38568;DHT22;24338;48.280;10.970;2023-03-19T14:15:02;15.90;96.80
38568;DHT22;24338;48.280;10.970;2023-03-19T14:17:36;15.90;95.30
38568;DHT22;24338;48.280;10.970;2023-03-19T14:28:33;15.80;95.60
38568;DHT22;24338;48.280;10.970;2023-03-19T14:31:02;15.80;97.80
38568;DHT22;24338;48.280;10.970;2023-03-19T14:33:43;15.80;96.30
38568;DHT22;24338;48.280;10.970;2023-03-19T14:36:17;15.80;95.60
38568;DHT22;24338;48.280;10.970;2023-03-19T14:38:59;15.80;95.90
38568;DHT22;24338;48.280;10.970;2023-03-19T14:41:32;15.80;95.20
38568;DHT22;24338;48.280;10.970;2023-03-19T14:53:10;15.50;96.00
38568;DHT22;24338;48.280;10.970;2023-03-19T14:55:41;15.40;95.10
38568;DHT22;24338;48.280;10.970;2023-03-19T14:58:10;15.50;96.30
38568;DHT22;24338;48.280;10.970;2023-03-19T15:00:49;15.50;96.30
38568;DHT22;24338;48.280;10.970;2023-03-19T15:03:32;15.50;96.00
38568;DHT22;24338;48.280;10.970;2023-03-19T15:06:02;15.50;96.60
38568;DHT22;24338;48.280;10.970;2023-03-19T15:08:31;15.40;95.50
38568;DHT22;24338;48.280;10.970;2023-03-19T15:11:33;15.30;95.80
38568;DHT22;24338;48.280;10.970;2023-03-19T15:16:56;15.30;95.40
38568;DHT22;24338;48.280;10.970;2023-03-19T15:19:27;15.30;95.70
38568;DHT22;24338;48.280;10.970;2023-03-19T15:22:17;15.30;96.60
38568;DHT22;24338;48.280;10.970;2023-03-19T15:24:45;15.20;96.20
38568;DHT22;24338;48.280;10.970;2023-03-19T15:29:47;15.40;97.10
38568;DHT22;24338;48.280;10.970;2023-03-19T15:32:39;15.40;95.60
38568;DHT22;24338;48.280;10.970;2023-03-19T15:35:33;15.20;95.70
38568;DHT22;24338;48.280;10.970;2023-03-19T15:38:06;15.20;95.30
38568;DHT22;24338;48.280;10.970;2023-03-19T15:40:34;15.30;94.20
38568;DHT22;24338;48.280;10.970;2023-03-19T15:43:02;15.30;94.50
38568;DHT22;24338;48.280;10.970;2023-03-19T15:45:31;15.40;95.30
38568;DHT22;24338;48.280;10.970;2023-03-19T15:48:26;15.40;95.30
38568;DHT22;24338;48.280;10.970;2023-03-19T15:50:57;15.40;93.90
38568;DHT22;24338;48.280;10.970;2023-03-19T15:53:27;15.30;93.40
38568;DHT22;24338;48.280;10.970;2023-03-19T15:55:55;15.30;94.20
38568;DHT22;24338;48.280;10.970;2023-03-19T15:58:26;15.30;94.40
38568;DHT22;24338;48.280;10.970;2023-03-19T16:00:53;15.30;95.50
38568;DHT22;24338;48.280;10.970;2023-03-19T16:03:39;15.20;95.00
38568;DHT22;24338;48.280;10.970;2023-03-19T16:06:16;15.20;96.10
38568;DHT22;24338;48.280;10.970;2023-03-19T16:08:50;15.20;95.50
38568;DHT22;24338;48.280;10.970;2023-03-19T16:11:36;15.20;95.40
38568;DHT22;24338;48.280;10.970;2023-03-19T16:16:41;14.80;93.80
38568;DHT22;24338;48.280;10.970;2023-03-19T16:19:30;14.80;95.80
38568;DHT22;24338;48.280;10.970;2023-03-19T16:21:58;14.60;94.70
38568;DHT22;24338;48.280;10.970;2023-03-19T16:24:35;14.50;95.20
38568;DHT22;24338;48.280;10.970;2023-03-19T16:27:09;14.40;95.10
38568;DHT22;24338;48.280;10.970;2023-03-19T16:29:39;14.40;95.90
38568;DHT22;24338;48.280;10.970;2023-03-19T16:32:20;14.30;95.50
38568;DHT22;24338;48.280;10.970;2023-03-19T16:34:51;14.20;95.90
38568;DHT22;24338;48.280;10.970;2023-03-19T16:40:03;14.10;98.10
38568;DHT22;24338;48.280;10.970;2023-03-19T16:47:49;13.60;99.90
38568;DHT22;24338;48.280;10.970;2023-03-19T16:50:18;13.50;99.90
38568;DHT22;24338;48.280;10.970;2023-03-19T16:52:46;13.40;99.90
38568;DHT22;24338;48.280;10.970;2023-03-19T16:55:29;13.30;99.90
38568;DHT22;24338;48.280;10.970;2023-03-19T17:00:30;13.10;99.90
38568;DHT22;24338;48.280;10.970;2023-03-19T17:02:58;13.00;99.90
38568;DHT22;24338;48.280;10.970;2023-03-19T17:05:26;12.90;99.90
38568;DHT22;24338;48.280;10.970;2023-03-19T17:07:54;12.80;99.90
38568;DHT22;24338;48.280;10.970;2023-03-19T17:10:24;12.70;99.90
38568;DHT22;24338;48.280;10.970;2023-03-19T17:12:53;12.60;99.90
38568;DHT22;24338;48.280;10.970;2023-03-19T17:15:36;12.60;99.90
38568;DHT22;24338;48.280;10.970;2023-03-19T17:18:14;12.50;99.90
38568;DHT22;24338;48.280;10.970;2023-03-19T17:20:49;12.40;99.90
38568;DHT22;24338;48.280;10.970;2023-03-19T17:23:17;12.40;99.90
38568;DHT22;24338;48.280;10.970;2023-03-19T17:25:44;12.30;99.90
38568;DHT22;24338;48.280;10.970;2023-03-19T17:28:11;12.30;99.90
38568;DHT22;24338;48.280;10.970;2023-03-19T17:30:38;12.20;99.90
38568;DHT22;24338;48.280;10.970;2023-03-19T17:33:05;12.20;99.90
38568;DHT22;24338;48.280;10.970;2023-03-19T17:35:32;12.10;99.90
38568;DHT22;24338;48.280;10.970;2023-03-19T17:38:00;12.10;99.90
38568;DHT22;24338;48.280;10.970;2023-03-19T17:40:27;12.00;99.90
38568;DHT22;24338;48.280;10.970;2023-03-19T17:42:54;11.90;99.90
38568;DHT22;24338;48.280;10.970;2023-03-19T17:45:26;11.90;99.90
38568;DHT22;24338;48.280;10.970;2023-03-19T17:47:56;11.90;99.90
38568;DHT22;24338;48.280;10.970;2023-03-19T17:50:26;11.90;99.90
38568;DHT22;24338;48.280;10.970;2023-03-19T17:52:54;11.80;99.90